Time;durP1;ratioP1;P1;durP2;ratioP2;P2;SDS_P1;SDS_P2;PMS_P1;PMS_P2;Temp;Humidity;BMP_temperature;BMP_pressure;BME280_temperature;BME280_humidity;BME280_pressure;Samples;Min_cycle;Max_cycle;Signal;HPM_P1;HPM_P2
2023/07/13 00:02:16;;;;;;;6.00;1.45;;;27.10;58.70;;;;;;10499776;28;20429;-35
2023/07/13 00:07:20;;;;;;;7.18;1.88;;;25.90;61.20;;;;;;10498040;28;20044;-36
2023/07/13 00:12:28;;;;;;;7.53;1.67;;;25.80;62.60;;;;;;10498189;28;20075;-39
2023/07/13 00:17:30;;;;;;;5.40;1.70;;;24.80;66.70;;;;;;10499788;28;20050;-35
2023/07/13 00:22:33;;;;;;;5.25;1.48;;;26.00;61.90;;;;;;10495648;28;20049;-38
2023/07/13 00:27:35;;;;;;;4.78;1.25;;;26.80;59.10;;;;;;10491935;28;20113;-44
2023/07/13 00:32:39;;;;;;;6.82;1.73;;;26.70;59.00;;;;;;10487077;28;20063;-41
2023/07/13 00:37:42;;;;;;;5.50;1.35;;;26.80;59.10;;;;;;10495557;28;20470;-36
2023/07/13 00:42:44;;;;;;;4.13;1.15;;;27.20;57.90;;;;;;10496958;28;20044;-38
2023/07/13 00:47:46;;;;;;;6.88;1.40;;;27.00;57.80;;;;;;10478694;28;20076;-41
2023/07/13 00:52:57;;;;;;;6.93;1.30;;;26.10;59.20;;;;;;10489207;28;20056;-36
2023/07/13 00:58:00;;;;;;;2.08;0.75;;;25.70;59.50;;;;;;10495129;28;20044;-39
2023/07/13 01:03:04;;;;;;;4.25;0.90;;;25.30;60.20;;;;;;10491868;28;20041;-37
2023/07/13 01:08:08;;;;;;;3.70;1.00;;;26.10;60.50;;;;;;10490990;28;20417;-41
2023/07/13 01:13:12;;;;;;;2.38;0.88;;;25.90;61.00;;;;;;10489653;28;20607;-38
2023/07/13 01:18:16;;;;;;;1.77;0.60;;;26.80;57.90;;;;;;10490101;28;20048;-37
2023/07/13 01:23:20;;;;;;;2.60;0.80;;;25.60;60.30;;;;;;10492844;28;20299;-37
2023/07/13 01:28:23;;;;;;;1.95;0.60;;;25.60;61.10;;;;;;10494050;28;20040;-36
2023/07/13 01:33:25;;;;;;;1.50;0.80;;;25.20;61.60;;;;;;10490691;28;20568;-36
2023/07/13 01:38:29;;;;;;;5.13;0.70;;;25.30;61.10;;;;;;10485129;28;20469;-40
2023/07/13 01:43:32;;;;;;;1.90;0.77;;;25.80;60.10;;;;;;10486141;28;20041;-36
2023/07/13 01:48:34;;;;;;;2.17;0.75;;;25.60;61.20;;;;;;10490464;28;20052;-39
2023/07/13 01:53:37;;;;;;;4.70;0.70;;;24.90;61.50;;;;;;10486054;28;20094;-38
2023/07/13 01:58:39;;;;;;;2.92;1.25;;;25.10;62.00;;;;;;10500950;28;20441;-37
2023/07/13 02:03:41;;;;;;;4.43;0.93;;;24.80;64.10;;;;;;10492937;28;20527;-36
2023/07/13 02:08:44;;;;;;;1.85;0.77;;;25.20;62.10;;;;;;10488979;28;20044;-36
2023/07/13 02:13:46;;;;;;;2.03;0.90;;;25.60;61.40;;;;;;10493536;28;20134;-35
2023/07/13 02:18:52;;;;;;;2.85;1.10;;;25.60;61.10;;;;;;10486944;28;20056;-41
2023/07/13 02:23:55;;;;;;;4.57;0.95;;;26.00;59.90;;;;;;10489549;28;20068;-39
2023/07/13 02:28:57;;;;;;;13.45;1.80;;;26.60;57.90;;;;;;10488772;28;20036;-39
2023/07/13 02:33:59;;;;;;;7.05;1.58;;;25.70;60.40;;;;;;10486548;28;20044;-37
2023/07/13 02:39:04;;;;;;;12.43;1.80;;;25.20;63.60;;;;;;10488980;28;20091;-37
2023/07/13 02:44:07;;;;;;;6.18;1.40;;;26.00;60.80;;;;;;10489186;28;20500;-41
2023/07/13 02:49:09;;;;;;;2.58;0.85;;;25.80;60.40;;;;;;10490833;28;20064;-40
2023/07/13 02:54:13;;;;;;;5.05;1.50;;;25.50;61.60;;;;;;10489711;28;20558;-36
2023/07/13 03:15:31;;;;;;;5.25;1.30;;;25.40;62.00;;;;;;10563790;27;20528;-41
2023/07/13 03:20:34;;;;;;;7.47;1.70;;;26.00;60.30;;;;;;10588904;27;20055;-35
2023/07/13 03:25:36;;;;;;;5.82;1.35;;;25.70;60.50;;;;;;10565708;28;20044;-40
2023/07/13 03:30:40;;;;;;;6.82;1.48;;;26.60;58.40;;;;;;10563950;28;20047;-37
2023/07/13 03:35:42;;;;;;;5.38;0.90;;;26.20;58.40;;;;;;10572814;28;20039;-36
2023/07/13 03:40:44;;;;;;;5.80;1.20;;;26.20;59.30;;;;;;10580311;28;20054;-38
2023/07/13 03:45:48;;;;;;;6.05;1.30;;;26.70;58.20;;;;;;10578615;28;20055;-36
2023/07/13 03:50:50;;;;;;;7.78;1.73;;;26.70;57.90;;;;;;10566354;28;20055;-35
2023/07/13 03:55:52;;;;;;;10.65;1.70;;;26.40;58.40;;;;;;10581444;28;20104;-40
2023/07/13 04:00:57;;;;;;;3.83;1.35;;;23.60;68.90;;;;;;10569604;28;20043;-33
2023/07/13 04:05:59;;;;;;;2.13;1.10;;;24.50;65.70;;;;;;10572049;28;20093;-37
2023/07/13 04:11:02;;;;;;;5.03;1.13;;;24.50;66.20;;;;;;10565199;28;20064;-35
2023/07/13 04:16:05;;;;;;;7.32;1.65;;;24.70;63.20;;;;;;10558542;28;20447;-35
2023/07/13 04:21:07;;;;;;;3.90;1.38;;;23.80;68.20;;;;;;10550918;28;20044;-39
2023/07/13 04:26:10;;;;;;;9.90;1.70;;;24.90;64.00;;;;;;10536845;28;20044;-40
2023/07/13 04:31:13;;;;;;;11.02;2.28;;;24.10;67.30;;;;;;10538022;28;20048;-36
2023/07/13 04:36:15;;;;;;;6.68;1.60;;;23.50;69.00;;;;;;10531480;28;20044;-39
2023/07/13 04:41:17;;;;;;;3.33;1.25;;;23.50;71.80;;;;;;10536179;28;20052;-37
2023/07/13 04:46:21;;;;;;;8.18;1.52;;;24.30;68.10;;;;;;10542185;28;20044;-39
2023/07/13 04:51:22;;;;;;;5.35;1.48;;;24.40;64.80;;;;;;10546203;28;20058;-36
2023/07/13 04:56:24;;;;;;;5.25;2.05;;;23.10;74.70;;;;;;10534618;28;20112;-40
2023/07/13 05:01:28;;;;;;;2.72;0.95;;;24.70;65.30;;;;;;10551113;28;20055;-37
2023/07/13 05:06:30;;;;;;;5.22;1.30;;;25.20;62.60;;;;;;10539950;28;20051;-36
2023/07/13 05:11:32;;;;;;;4.82;1.20;;;24.60;66.30;;;;;;10544005;28;20083;-38
2023/07/13 05:16:35;;;;;;;3.55;1.20;;;25.10;62.00;;;;;;10543984;28;20043;-37
2023/07/13 05:21:37;;;;;;;5.00;1.25;;;24.80;65.70;;;;;;10544937;28;20048;-41
2023/07/13 05:26:40;;;;;;;6.57;1.58;;;25.20;63.90;;;;;;10519636;28;20040;-36
2023/07/13 05:31:43;;;;;;;4.30;1.15;;;23.80;69.40;;;;;;10530704;28;20048;-38
2023/07/13 05:36:45;;;;;;;8.02;1.58;;;24.90;66.00;;;;;;10522955;28;20625;-35
2023/07/13 05:41:47;;;;;;;7.85;1.65;;;22.90;76.60;;;;;;10527025;28;20047;-38
2023/07/13 05:46:50;;;;;;;5.40;1.20;;;25.00;64.80;;;;;;10518107;28;20059;-36
2023/07/13 05:51:52;;;;;;;6.32;1.50;;;24.10;68.70;;;;;;10532631;28;20513;-38
2023/07/13 05:56:54;;;;;;;3.03;1.17;;;23.90;69.40;;;;;;10533747;28;20036;-39
2023/07/13 06:01:57;;;;;;;5.93;1.52;;;24.80;64.50;;;;;;10528291;28;20058;-38
2023/07/13 06:07:00;;;;;;;5.38;1.27;;;25.00;62.40;;;;;;10537454;28;20048;-43
2023/07/13 06:12:01;;;;;;;5.53;1.50;;;24.30;66.30;;;;;;10535656;28;20054;-41
2023/07/13 06:17:06;;;;;;;6.07;1.75;;;25.00;64.60;;;;;;10532249;28;20044;-42
2023/07/13 06:22:07;;;;;;;3.58;1.42;;;25.60;62.50;;;;;;10528837;28;20039;-39
2023/07/13 06:27:09;;;;;;;4.55;1.20;;;24.60;67.10;;;;;;10546071;28;20039;-43
2023/07/13 06:32:13;;;;;;;10.15;1.92;;;25.80;61.70;;;;;;10536550;28;20039;-41
2023/07/13 06:37:15;;;;;;;4.88;2.05;;;24.00;66.60;;;;;;10527149;28;20115;-37
2023/07/13 06:42:17;;;;;;;2.85;1.20;;;25.10;64.80;;;;;;10526770;28;20055;-37
2023/07/13 06:47:20;;;;;;;7.32;1.83;;;24.30;67.70;;;;;;10520931;28;20047;-38
2023/07/13 06:52:22;;;;;;;5.22;1.92;;;24.50;65.40;;;;;;10537316;28;20048;-38
2023/07/13 06:57:24;;;;;;;7.03;1.20;;;24.20;67.30;;;;;;10526299;28;20050;-41
2023/07/13 07:02:28;;;;;;;5.88;1.50;;;24.70;65.00;;;;;;10530028;28;20043;-39
2023/07/13 07:07:30;;;;;;;6.20;1.23;;;23.10;75.20;;;;;;10522597;28;20448;-38
2023/07/13 07:12:32;;;;;;;5.68;1.75;;;25.80;62.00;;;;;;10527577;28;20104;-39
2023/07/13 07:17:35;;;;;;;6.28;1.38;;;25.60;62.00;;;;;;10521070;28;20412;-38
2023/07/13 07:22:37;;;;;;;11.27;1.55;;;26.10;61.50;;;;;;10520204;28;20040;-41
2023/07/13 07:27:39;;;;;;;6.65;1.63;;;24.90;65.70;;;;;;10517105;28;20063;-35
2023/07/13 07:32:43;;;;;;;5.00;1.92;;;25.20;63.50;;;;;;10529642;28;20462;-37
2023/07/13 07:37:44;;;;;;;6.78;1.73;;;25.10;64.40;;;;;;10528352;28;20071;-42
2023/07/13 07:42:46;;;;;;;8.68;1.65;;;22.90;72.00;;;;;;10526483;28;21466;-33
2023/07/13 07:47:50;;;;;;;9.38;1.90;;;23.30;74.50;;;;;;10531164;28;20058;-44
2023/07/13 07:52:52;;;;;;;4.20;1.70;;;24.30;68.90;;;;;;10532357;28;20044;-39
2023/07/13 07:57:54;;;;;;;5.47;1.50;;;23.70;69.90;;;;;;10546337;28;20089;-36
2023/07/13 08:02:57;;;;;;;6.53;2.20;;;24.10;70.10;;;;;;10543158;28;20047;-40
2023/07/13 08:07:59;;;;;;;6.82;1.92;;;23.10;72.80;;;;;;10528473;28;20051;-41
2023/07/13 08:13:00;;;;;;;;;;;23.90;71.50;;;;;;10539675;28;20052;-37
2023/07/13 08:18:04;;;;;;;8.65;1.90;;;23.00;76.50;;;;;;10541042;28;19938;-40
2023/07/13 08:23:06;;;;;;;8.73;1.70;;;23.60;72.70;;;;;;10536447;28;20036;-41
2023/07/13 08:28:08;;;;;;;7.88;1.77;;;23.00;76.00;;;;;;10537475;28;20169;-37
2023/07/13 08:33:11;;;;;;;5.55;1.83;;;23.60;72.20;;;;;;10550228;28;20451;-39
2023/07/13 08:38:13;;;;;;;8.40;1.80;;;23.70;72.40;;;;;;10534323;28;20051;-38
2023/07/13 08:43:19;;;;;;;12.95;2.42;;;24.10;68.80;;;;;;10540603;28;20044;-39
2023/07/13 08:48:27;;;;;;;7.13;1.50;;;23.10;73.40;;;;;;10539105;28;20089;-38
2023/07/13 08:53:37;;;;;;;6.75;2.08;;;23.90;72.10;;;;;;10532350;28;20051;-37
2023/07/13 08:58:41;;;;;;;3.97;1.63;;;23.30;76.10;;;;;;10537535;28;20453;-45
2023/07/13 09:03:55;;;;;;;7.13;1.83;;;24.30;69.60;;;;;;10545540;28;20048;-38
2023/07/13 09:09:03;;;;;;;6.45;2.08;;;22.80;80.60;;;;;;10531918;28;20048;-39
2023/07/13 09:14:16;;;;;;;7.00;2.38;;;23.20;75.60;;;;;;10534957;28;20084;-39
2023/07/13 09:19:25;;;;;;;7.95;2.13;;;23.10;72.30;;;;;;10538709;28;20063;-39
2023/07/13 09:24:37;;;;;;;6.80;1.80;;;23.00;76.90;;;;;;10532122;28;20043;-36
2023/07/13 09:29:46;;;;;;;9.68;2.17;;;23.40;74.80;;;;;;10541261;28;20043;-40
2023/07/13 09:34:54;;;;;;;9.70;2.33;;;23.60;72.20;;;;;;10531110;28;20056;-42
2023/07/13 09:39:58;;;;;;;8.13;1.90;;;22.80;76.80;;;;;;10535203;28;20059;-41
2023/07/13 09:45:03;;;;;;;6.35;1.65;;;23.40;74.30;;;;;;10534959;28;20109;-40
2023/07/13 09:50:09;;;;;;;5.72;1.60;;;23.50;71.70;;;;;;10540838;28;20510;-43
2023/07/13 09:55:29;;;;;;;6.47;2.22;;;23.50;73.50;;;;;;10530583;28;20051;-38
2023/07/13 10:00:31;;;;;;;7.15;2.22;;;23.50;71.50;;;;;;10528952;28;20047;-41
2023/07/13 10:05:43;;;;;;;6.38;2.22;;;23.80;72.50;;;;;;10524542;28;20043;-38
2023/07/13 10:10:45;;;;;;;9.88;1.92;;;23.00;74.60;;;;;;10529433;28;20497;-38
2023/07/13 10:15:49;;;;;;;5.10;1.40;;;24.30;69.00;;;;;;10533164;28;20063;-38
2023/07/13 10:21:00;;;;;;;5.93;1.85;;;24.00;71.90;;;;;;10525668;28;20105;-40
2023/07/13 10:26:02;;;;;;;6.63;1.58;;;24.40;68.40;;;;;;10527549;28;20076;-37
2023/07/13 10:31:11;;;;;;;7.65;2.10;;;23.80;73.10;;;;;;10522662;28;20040;-39
2023/07/13 10:36:21;;;;;;;4.40;1.90;;;23.00;76.80;;;;;;10533311;28;20052;-37
2023/07/13 10:41:26;;;;;;;6.20;2.00;;;23.20;76.00;;;;;;10528219;28;20059;-42
2023/07/13 10:46:30;;;;;;;5.53;1.70;;;22.90;78.10;;;;;;10524753;28;20048;-40
2023/07/13 10:51:33;;;;;;;7.32;1.90;;;23.30;72.10;;;;;;10530003;28;20036;-40
2023/07/13 10:56:36;;;;;;;5.22;2.20;;;23.50;73.70;;;;;;10534739;28;20044;-40
2023/07/13 11:01:47;;;;;;;6.05;1.80;;;23.60;72.80;;;;;;10530146;28;20127;-45
2023/07/13 11:06:53;;;;;;;4.47;1.80;;;22.50;78.20;;;;;;10522948;28;20524;-38
2023/07/13 11:11:59;;;;;;;6.60;2.20;;;23.60;69.90;;;;;;10523705;28;20113;-41
2023/07/13 11:17:49;;;;;;;7.85;2.28;;;22.80;73.10;;;;;;10535751;28;20137;-39
2023/07/13 11:22:54;;;;;;;7.95;2.40;;;22.90;77.50;;;;;;10531311;28;20059;-39
2023/07/13 11:28:15;;;;;;;6.47;2.13;;;24.10;69.20;;;;;;10527886;28;20123;-37
2023/07/13 11:33:20;;;;;;;3.05;1.92;;;23.70;69.40;;;;;;10534766;28;20047;-38
2023/07/13 11:38:28;;;;;;;5.40;2.20;;;23.60;71.80;;;;;;10550925;28;20051;-39
2023/07/13 11:43:33;;;;;;;4.38;1.50;;;23.00;68.70;;;;;;10534125;28;20400;-37
2023/07/13 11:48:36;;;;;;;3.70;1.60;;;23.60;67.90;;;;;;10535977;28;20121;-36
2023/07/13 11:53:49;;;;;;;4.45;2.38;;;24.00;65.90;;;;;;10522492;28;20050;-37
2023/07/13 11:58:53;;;;;;;4.93;1.50;;;23.90;67.00;;;;;;10533480;28;20071;-39
2023/07/13 12:03:55;;;;;;;10.02;1.60;;;25.00;63.30;;;;;;10528403;28;20043;-40
2023/07/13 12:09:00;;;;;;;6.05;1.80;;;25.10;63.80;;;;;;10543799;28;20405;-39
2023/07/13 12:14:02;;;;;;;5.43;1.77;;;24.40;65.40;;;;;;10550084;28;20587;-38
2023/07/13 12:19:04;;;;;;;4.35;1.60;;;24.30;66.50;;;;;;10532158;28;20136;-37
2023/07/13 12:24:15;;;;;;;4.70;1.75;;;24.60;64.90;;;;;;10533110;28;20043;-40
2023/07/13 12:29:18;;;;;;;4.22;1.70;;;24.10;65.80;;;;;;10554889;28;20051;-38
2023/07/13 12:34:22;;;;;;;4.45;1.48;;;25.20;64.10;;;;;;10549583;28;20047;-39
2023/07/13 12:39:33;;;;;;;10.52;1.77;;;25.90;61.40;;;;;;10541507;28;20066;-40
2023/07/13 12:44:35;;;;;;;4.55;1.40;;;24.50;68.00;;;;;;10537372;28;20497;-43
2023/07/13 12:49:42;;;;;;;5.90;1.75;;;23.90;65.30;;;;;;10534495;28;20047;-40
2023/07/13 12:54:57;;;;;;;6.22;1.48;;;23.60;66.70;;;;;;10537766;28;20059;-38
2023/07/13 12:59:59;;;;;;;2.72;1.20;;;24.90;63.20;;;;;;10539470;28;20051;-43
2023/07/13 13:05:04;;;;;;;3.60;1.30;;;24.60;61.50;;;;;;10532976;28;20043;-42
2023/07/13 13:10:14;;;;;;;4.45;1.60;;;24.60;65.80;;;;;;10533276;28;20123;-33
2023/07/13 13:15:16;;;;;;;3.33;1.48;;;25.00;63.00;;;;;;10520678;28;20056;-43
2023/07/13 13:20:22;;;;;;;4.28;1.00;;;24.50;66.20;;;;;;10539432;28;20043;-43
2023/07/13 13:25:26;;;;;;;8.57;1.88;;;25.40;59.30;;;;;;10533276;28;20044;-36
2023/07/13 13:30:28;;;;;;;2.55;1.33;;;24.90;65.00;;;;;;10524708;28;20036;-43
2023/07/13 13:35:30;;;;;;;4.47;1.30;;;26.20;60.50;;;;;;10528192;28;20043;-42
2023/07/13 13:40:33;;;;;;;7.65;1.40;;;26.40;59.10;;;;;;10543356;28;20055;-42
2023/07/13 13:45:36;;;;;;;5.10;1.20;;;26.50;59.40;;;;;;10526204;28;20122;-41
2023/07/13 13:50:38;;;;;;;4.47;1.48;;;25.90;62.10;;;;;;10514303;28;20558;-41
2023/07/13 13:55:42;;;;;;;4.45;1.38;;;26.40;59.50;;;;;;10520332;28;20724;-41
2023/07/13 14:00:45;;;;;;;4.82;1.20;;;26.70;56.20;;;;;;10534665;28;20109;-40
2023/07/13 14:05:47;;;;;;;4.03;1.60;;;27.10;56.50;;;;;;10523237;28;20040;-41
2023/07/13 14:10:53;;;;;;;6.75;2.03;;;26.70;59.20;;;;;;10536054;28;20040;-40
2023/07/13 14:15:55;;;;;;;3.85;1.73;;;26.40;59.20;;;;;;10524552;28;20052;-39
2023/07/13 14:20:57;;;;;;;5.30;1.40;;;27.10;59.50;;;;;;10533323;28;20125;-43
2023/07/13 14:26:01;;;;;;;4.50;1.05;;;26.30;60.30;;;;;;10503934;28;20106;-40
2023/07/13 14:31:03;;;;;;;6.35;1.70;;;27.00;59.40;;;;;;10521711;28;20653;-37
2023/07/13 14:36:22;;;;;;;5.60;1.50;;;27.80;57.80;;;;;;10526207;28;20405;-39
2023/07/13 14:41:26;;;;;;;1.83;1.00;;;27.20;56.70;;;;;;10534134;28;20047;-44
2023/07/13 14:46:30;;;;;;;6.32;1.23;;;28.00;57.90;;;;;;10536761;28;20043;-37
2023/07/13 14:51:33;;;;;;;4.07;1.30;;;27.30;58.50;;;;;;10521639;28;20044;-37
2023/07/13 14:56:37;;;;;;;5.20;1.30;;;28.20;56.40;;;;;;10530384;28;20048;-37
2023/07/13 15:01:41;;;;;;;3.85;1.30;;;27.90;56.20;;;;;;10537031;28;20066;-38
2023/07/13 15:06:56;;;;;;;4.25;1.23;;;28.30;57.40;;;;;;10526711;28;20052;-43
2023/07/13 15:12:00;;;;;;;7.72;1.33;;;28.10;57.50;;;;;;10539311;28;20054;-41
2023/07/13 15:17:02;;;;;;;7.05;1.13;;;27.50;56.50;;;;;;10542261;28;20125;-41
2023/07/13 15:22:05;;;;;;;9.27;1.27;;;27.80;59.20;;;;;;10534645;28;20457;-37
2023/07/13 15:27:12;;;;;;;6.97;1.92;;;28.60;56.70;;;;;;10523018;28;20040;-41
2023/07/13 15:32:15;;;;;;;3.78;1.30;;;27.80;57.10;;;;;;10532406;28;20048;-36
2023/07/13 15:37:17;;;;;;;4.53;1.10;;;27.60;55.80;;;;;;10526009;28;20097;-39
2023/07/13 15:42:22;;;;;;;5.80;1.33;;;27.50;59.40;;;;;;10534335;28;20476;-41
2023/07/13 15:47:23;;;;;;;3.70;1.10;;;28.50;55.20;;;;;;10528126;28;20039;-38
2023/07/13 15:52:25;;;;;;;5.43;1.27;;;29.00;55.10;;;;;;10531084;28;20040;-38
2023/07/13 15:57:29;;;;;;;7.38;1.42;;;28.90;54.40;;;;;;10533086;28;20563;-40
2023/07/13 16:02:31;;;;;;;2.10;0.88;;;27.40;54.80;;;;;;10536341;28;20050;-34
2023/07/13 16:07:33;;;;;;;4.85;1.40;;;28.10;58.70;;;;;;10536671;28;20048;-42
2023/07/13 16:12:37;;;;;;;3.55;1.48;;;29.10;56.90;;;;;;10526872;28;20056;-41
2023/07/13 16:17:40;;;;;;;9.55;1.38;;;28.80;55.10;;;;;;10518538;28;20394;-40
2023/07/13 16:22:46;;;;;;;5.05;1.20;;;29.00;53.60;;;;;;10530651;28;20048;-40
2023/07/13 16:27:50;;;;;;;4.95;1.20;;;29.00;56.40;;;;;;10536103;28;20442;-39
2023/07/13 16:32:53;;;;;;;3.30;1.30;;;28.80;56.40;;;;;;10518630;28;20094;-37
2023/07/13 16:37:56;;;;;;;5.65;1.40;;;29.20;55.70;;;;;;10528957;28;20051;-42
2023/07/13 16:43:03;;;;;;;3.58;1.13;;;28.00;55.30;;;;;;10531924;28;20075;-43
2023/07/13 16:48:14;;;;;;;2.85;1.50;;;29.80;54.30;;;;;;10513333;28;20135;-39
2023/07/13 16:53:21;;;;;;;4.20;1.20;;;30.10;53.40;;;;;;10513892;28;20647;-42
2023/07/13 16:58:26;;;;;;;2.50;1.15;;;30.00;53.40;;;;;;10528807;28;20051;-41
2023/07/13 17:03:29;;;;;;;3.92;1.20;;;29.80;54.10;;;;;;10533706;28;20044;-41
2023/07/13 17:08:32;;;;;;;3.25;1.05;;;28.80;55.20;;;;;;10547127;28;20040;-39
2023/07/13 17:13:36;;;;;;;8.10;1.63;;;29.30;53.10;;;;;;10534082;28;20061;-42
2023/07/13 17:18:38;;;;;;;8.30;1.42;;;29.00;53.70;;;;;;10521572;28;20047;-42
2023/07/13 17:23:40;;;;;;;7.57;1.08;;;27.80;54.00;;;;;;10531510;28;20051;-36
2023/07/13 17:28:44;;;;;;;2.83;0.85;;;29.00;55.60;;;;;;10531308;28;20150;-40
2023/07/13 17:33:47;;;;;;;2.72;1.10;;;30.10;53.80;;;;;;10533998;28;20055;-36
2023/07/13 17:38:56;;;;;;;5.97;1.10;;;30.30;52.80;;;;;;10531924;28;20101;-37
2023/07/13 17:43:59;;;;;;;3.20;0.98;;;30.20;52.40;;;;;;10524277;28;20165;-40
2023/07/13 17:49:01;;;;;;;3.70;1.10;;;29.60;53.50;;;;;;10529423;28;20481;-43
2023/07/13 17:54:03;;;;;;;3.08;0.90;;;29.50;53.50;;;;;;10539889;28;20059;-41
2023/07/13 17:59:06;;;;;;;3.70;1.10;;;29.20;52.40;;;;;;10541377;28;20035;-43
2023/07/13 18:04:11;;;;;;;13.25;1.38;;;28.90;55.10;;;;;;10534402;28;20109;-38
2023/07/13 18:09:16;;;;;;;9.85;1.33;;;29.20;57.10;;;;;;10526243;28;20189;-43
2023/07/13 18:14:20;;;;;;;6.10;1.60;;;29.20;55.20;;;;;;10534442;28;20480;-40
2023/07/13 18:19:33;;;;;;;12.63;1.00;;;28.40;55.90;;;;;;10530774;28;20040;-41
2023/07/13 18:24:35;;;;;;;5.80;0.77;;;28.20;54.90;;;;;;10518268;28;20040;-45
2023/07/13 18:29:38;;;;;;;5.60;1.20;;;26.20;57.20;;;;;;10522873;28;20044;-42
2023/07/13 18:34:42;;;;;;;5.30;0.90;;;28.90;54.10;;;;;;10527808;28;20059;-43
2023/07/13 18:39:44;;;;;;;2.60;1.00;;;27.50;54.50;;;;;;10535280;28;20330;-42
2023/07/13 18:44:48;;;;;;;1.83;0.88;;;28.20;55.70;;;;;;10526670;28;20036;-37
2023/07/13 18:49:51;;;;;;;2.58;1.02;;;29.60;53.50;;;;;;10509380;28;20052;-41
2023/07/13 18:54:53;;;;;;;2.50;0.50;;;29.60;53.00;;;;;;10522983;28;20520;-38
2023/07/13 18:59:57;;;;;;;6.60;1.10;;;29.60;52.50;;;;;;10528657;28;20464;-38
2023/07/13 19:05:00;;;;;;;3.33;1.00;;;28.00;53.60;;;;;;10529893;28;20051;-37
2023/07/13 19:10:01;;;;;;;1.90;0.77;;;29.90;52.20;;;;;;10526928;28;20488;-36
2023/07/13 19:15:18;;;;;;;2.60;1.17;;;30.00;51.80;;;;;;10525211;28;20499;-40
2023/07/13 19:20:23;;;;;;;5.70;1.15;;;29.90;50.80;;;;;;10525412;28;20097;-40
2023/07/13 19:25:25;;;;;;;3.47;0.82;;;29.30;52.80;;;;;;10534023;28;20044;-42
2023/07/13 19:30:30;;;;;;;3.75;0.85;;;29.20;52.80;;;;;;10528332;28;20051;-38
2023/07/13 19:35:33;;;;;;;6.60;1.30;;;27.80;54.70;;;;;;10506054;28;20040;-41
2023/07/13 19:40:35;;;;;;;9.05;1.23;;;27.60;52.20;;;;;;10514352;28;20127;-41
2023/07/13 19:45:38;;;;;;;5.47;1.40;;;27.20;53.70;;;;;;10524335;28;20485;-40
2023/07/13 19:50:42;;;;;;;2.83;1.10;;;28.00;54.70;;;;;;10532412;28;20040;-39
2023/07/13 19:55:44;;;;;;;4.15;0.90;;;28.90;52.80;;;;;;10517712;28;20071;-40
2023/07/13 20:00:48;;;;;;;3.25;0.95;;;29.10;51.90;;;;;;10526614;28;20062;-35
2023/07/13 20:05:50;;;;;;;7.05;1.50;;;29.40;51.50;;;;;;10523760;28;20485;-37
2023/07/13 20:10:52;;;;;;;7.15;1.58;;;28.20;52.70;;;;;;10534725;28;20400;-37
2023/07/13 20:15:57;;;;;;;4.82;1.30;;;27.80;51.80;;;;;;10530397;28;20052;-42
2023/07/13 20:20:59;;;;;;;8.38;1.10;;;28.50;50.20;;;;;;10528722;28;20051;-38
2023/07/13 20:26:01;;;;;;;2.42;0.85;;;28.60;52.80;;;;;;10537223;28;20055;-38
2023/07/13 20:31:10;;;;;;;3.47;1.30;;;29.20;51.90;;;;;;10530988;28;20102;-39
2023/07/13 20:36:13;;;;;;;3.28;1.27;;;28.30;52.40;;;;;;10536416;28;20048;-37
2023/07/13 20:41:17;;;;;;;3.40;1.10;;;27.10;54.80;;;;;;10540576;28;20108;-36
2023/07/13 20:46:21;;;;;;;5.53;1.75;;;28.30;53.00;;;;;;10523281;28;20044;-42
2023/07/13 20:51:23;;;;;;;2.00;0.85;;;28.40;52.50;;;;;;10536414;28;20113;-42
2023/07/13 20:56:28;;;;;;;2.80;1.00;;;28.80;52.10;;;;;;10533253;28;20063;-42
2023/07/13 21:01:34;;;;;;;4.82;1.27;;;28.20;53.20;;;;;;10528134;28;20524;-39
2023/07/13 21:06:36;;;;;;;2.72;1.10;;;28.40;52.40;;;;;;10534447;28;20043;-44
2023/07/13 21:11:39;;;;;;;2.45;0.95;;;28.20;53.10;;;;;;10528980;28;20059;-35
2023/07/13 21:16:42;;;;;;;3.65;1.30;;;28.30;53.00;;;;;;10538407;28;20778;-38
2023/07/13 21:21:44;;;;;;;5.70;1.83;;;26.80;55.70;;;;;;10533108;28;20056;-35
2023/07/13 21:26:47;;;;;;;6.20;1.25;;;25.20;57.70;;;;;;10529143;28;20118;-36
2023/07/13 21:31:51;;;;;;;3.17;1.30;;;26.40;56.90;;;;;;10526875;28;20047;-38
2023/07/13 21:36:58;;;;;;;5.93;1.42;;;25.80;58.70;;;;;;10528082;28;20488;-40
2023/07/13 21:42:01;;;;;;;7.32;1.92;;;26.90;55.60;;;;;;10527926;28;20051;-38
2023/07/13 21:47:04;;;;;;;6.68;1.60;;;26.90;55.10;;;;;;10513358;28;20044;-45
2023/07/13 21:52:16;;;;;;;4.47;1.58;;;26.10;57.90;;;;;;10530345;28;20060;-38
2023/07/13 21:57:18;;;;;;;4.35;1.73;;;26.10;57.50;;;;;;10533424;28;20503;-36
2023/07/13 22:02:21;;;;;;;2.67;1.40;;;26.50;56.80;;;;;;10530075;28;20047;-39
2023/07/13 22:07:23;;;;;;;3.25;1.60;;;26.60;56.60;;;;;;10525036;28;20183;-32
2023/07/13 22:12:25;;;;;;;3.08;1.48;;;26.30;56.80;;;;;;10527957;28;20679;-38
2023/07/13 22:17:28;;;;;;;2.42;1.20;;;27.50;54.80;;;;;;10531767;28;20052;-35
2023/07/13 22:22:31;;;;;;;4.18;1.75;;;27.40;54.60;;;;;;10526327;28;20048;-36
2023/07/13 22:27:33;;;;;;;4.72;1.35;;;27.20;54.80;;;;;;10525527;28;20143;-37
2023/07/13 22:32:36;;;;;;;3.42;1.40;;;27.10;55.60;;;;;;10526539;28;20425;-38
2023/07/13 22:37:38;;;;;;;4.70;1.50;;;27.60;54.50;;;;;;10525728;28;20048;-33
2023/07/13 22:42:40;;;;;;;2.97;1.40;;;28.10;53.50;;;;;;10518827;28;20121;-37
2023/07/13 22:47:44;;;;;;;3.55;1.40;;;27.80;54.10;;;;;;10525342;28;20066;-43
2023/07/13 22:52:46;;;;;;;3.10;1.52;;;26.70;56.50;;;;;;10519905;28;20063;-39
2023/07/13 22:57:50;;;;;;;5.63;1.85;;;27.40;53.00;;;;;;10525871;28;20552;-35
2023/07/13 23:02:53;;;;;;;4.32;1.70;;;26.70;55.60;;;;;;10527022;28;20481;-35
2023/07/13 23:07:55;;;;;;;3.90;1.50;;;25.50;59.20;;;;;;10523224;28;20489;-42
2023/07/13 23:13:02;;;;;;;5.85;1.70;;;26.10;57.50;;;;;;10516522;28;20135;-43
2023/07/13 23:18:06;;;;;;;3.30;1.65;;;26.40;56.70;;;;;;10533495;28;20047;-35
2023/07/13 23:23:12;;;;;;;5.38;1.38;;;26.40;56.40;;;;;;10532146;28;20040;-38
2023/07/13 23:28:14;;;;;;;4.72;1.50;;;26.70;55.80;;;;;;10532727;28;20055;-39
2023/07/13 23:33:22;;;;;;;4.47;1.85;;;26.70;56.10;;;;;;10543897;28;20408;-36
2023/07/13 23:38:24;;;;;;;2.42;1.52;;;27.50;54.90;;;;;;10549751;28;20056;-38
2023/07/13 23:43:26;;;;;;;1.77;1.10;;;27.80;53.80;;;;;;10540144;28;20059;-39
2023/07/13 23:48:29;;;;;;;2.80;1.33;;;27.90;54.20;;;;;;10535351;28;20047;-37
2023/07/13 23:53:31;;;;;;;2.10;0.90;;;27.90;53.60;;;;;;10534851;28;20040;-38
2023/07/13 23:58:33;;;;;;;4.35;1.40;;;28.00;53.60;;;;;;10537664;28;20377;-34
